Time;durP1;ratioP1;P1;durP2;ratioP2;P2;SDS_P1;SDS_P2;PMS_P1;PMS_P2;Temp;Humidity;BMP_temperature;BMP_pressure;BME280_temperature;BME280_humidity;BME280_pressure;Samples;Min_cycle;Max_cycle;Signal;HPM_P1;HPM_P2
2021/12/13 00:00:55;;;;;;;0.10;0.10;;;3.50;99.90;226.50;231333.00;;;;5008137;28;20197;-73
2021/12/13 00:03:29;;;;;;;0.10;0.10;;;3.50;99.90;226.50;231333.00;;;;5007639;28;20262;-73
2021/12/13 00:06:06;;;;;;;0.10;0.10;;;3.50;99.90;226.50;231333.00;;;;5006024;28;20206;-73
2021/12/13 00:08:38;;;;;;;0.10;0.10;;;3.40;99.90;226.50;231333.00;;;;5006032;28;20239;-73
2021/12/13 00:11:13;;;;;;;0.10;0.10;;;3.50;99.90;226.50;231333.00;;;;5008941;28;20219;-73
2021/12/13 00:13:46;;;;;;;0.10;0.10;;;3.40;99.90;226.50;231333.00;;;;5005930;28;20226;-73
2021/12/13 00:16:16;;;;;;;0.10;0.10;;;3.40;99.90;226.50;231333.00;;;;5016892;28;20195;-73
2021/12/13 00:18:48;;;;;;;0.10;0.10;;;3.40;99.90;226.50;231333.00;;;;5015044;28;20231;-73
2021/12/13 00:21:24;;;;;;;0.10;0.10;;;3.40;99.90;226.50;231333.00;;;;5009336;28;20294;-73
2021/12/13 00:23:58;;;;;;;0.10;0.10;;;3.50;99.90;226.50;231333.00;;;;5012822;28;20238;-73
2021/12/13 00:26:32;;;;;;;0.10;0.10;;;3.50;99.90;226.50;231333.00;;;;5016684;28;20210;-73
2021/12/13 00:29:09;;;;;;;0.10;0.10;;;3.50;99.90;226.50;231333.00;;;;5017822;28;20191;-73
2021/12/13 00:31:49;;;;;;;0.10;0.10;;;3.50;99.90;226.50;231333.00;;;;5020918;28;20227;-73
2021/12/13 00:34:33;;;;;;;0.10;0.10;;;3.50;99.90;226.50;231333.00;;;;5017147;28;20218;-73
2021/12/13 00:37:09;;;;;;;0.10;0.10;;;3.50;99.90;226.50;231333.00;;;;5008572;28;20222;-74
2021/12/13 00:39:47;;;;;;;0.10;0.10;;;3.50;99.90;226.50;231333.00;;;;5008453;28;20250;-73
2021/12/13 00:42:18;;;;;;;0.10;0.10;;;3.50;99.90;226.50;231333.00;;;;5007550;28;20622;-73
2021/12/13 00:44:51;;;;;;;0.10;0.10;;;3.50;99.90;226.50;231333.00;;;;5007585;28;20767;-73
2021/12/13 00:47:24;;;;;;;0.10;0.10;;;3.50;99.90;226.50;231333.00;;;;5005071;28;20278;-73
2021/12/13 00:49:59;;;;;;;0.10;0.10;;;3.50;99.90;226.50;231333.00;;;;5009362;28;20200;-73
2021/12/13 00:52:31;;;;;;;0.10;0.10;;;3.50;99.90;226.50;231333.00;;;;5007518;28;20315;-74
2021/12/13 00:55:01;;;;;;;0.10;0.10;;;3.50;99.90;226.50;231333.00;;;;5008341;28;20211;-73
2021/12/13 00:57:50;;;;;;;0.10;0.10;;;3.50;99.90;226.50;231333.00;;;;5008933;28;20661;-73
2021/12/13 01:00:27;;;;;;;0.10;0.10;;;3.50;99.90;226.50;231333.00;;;;5007211;28;20665;-74
2021/12/13 01:03:01;;;;;;;0.20;0.20;;;3.60;99.90;226.50;231333.00;;;;5009423;28;20716;-73
2021/12/13 01:06:12;;;;;;;0.10;0.10;;;3.60;99.90;226.50;231333.00;;;;5006093;28;20191;-73
2021/12/13 01:09:38;;;;;;;0.10;0.10;;;3.60;99.90;226.50;231333.00;;;;5007552;28;20195;-73
2021/12/13 01:12:09;;;;;;;0.10;0.10;;;3.60;99.90;226.50;231333.00;;;;5008610;28;20552;-72
2021/12/13 01:14:54;;;;;;;0.10;0.10;;;3.60;99.90;226.50;231333.00;;;;5007900;28;20223;-73
2021/12/13 01:17:41;;;;;;;0.10;0.10;;;3.60;99.90;226.50;231333.00;;;;5007773;28;20210;-73
2021/12/13 01:20:25;;;;;;;0.10;0.10;;;3.60;99.90;226.50;231333.00;;;;5006881;28;20608;-73
2021/12/13 01:23:03;;;;;;;0.10;0.10;;;3.60;99.90;226.50;231333.00;;;;5007759;28;20223;-73
2021/12/13 01:25:42;;;;;;;0.10;0.10;;;3.60;99.90;226.50;231333.00;;;;5012044;28;20192;-73
2021/12/13 01:28:22;;;;;;;0.10;0.10;;;3.60;99.90;226.50;231333.00;;;;5011883;28;20464;-73
2021/12/13 01:30:58;;;;;;;0.10;0.10;;;3.60;99.90;226.50;231333.00;;;;5009978;28;20196;-74
2021/12/13 01:33:30;;;;;;;0.10;0.10;;;3.60;99.90;226.50;231333.00;;;;5010408;28;20215;-74
2021/12/13 01:36:05;;;;;;;0.10;0.10;;;3.60;99.90;226.50;231333.00;;;;5011011;28;20195;-73
2021/12/13 01:38:41;;;;;;;0.10;0.10;;;3.60;99.90;226.50;231333.00;;;;5011811;28;20195;-73
2021/12/13 01:41:15;;;;;;;0.10;0.10;;;3.60;99.90;226.50;231333.00;;;;5011589;28;20234;-74
2021/12/13 01:43:49;;;;;;;0.10;0.10;;;3.50;99.90;226.50;231333.00;;;;5011601;28;20345;-73
2021/12/13 01:46:21;;;;;;;0.00;0.00;;;3.60;99.90;226.50;231333.00;;;;5012197;28;20188;-73
2021/12/13 01:48:53;;;;;;;0.10;0.10;;;3.60;99.90;226.50;231333.00;;;;5011748;28;20195;-73
2021/12/13 01:51:26;;;;;;;0.10;0.10;;;3.60;99.90;226.50;231333.00;;;;5011667;28;20231;-73
2021/12/13 01:54:01;;;;;;;0.10;0.10;;;3.60;99.90;226.50;231333.00;;;;5007724;28;20231;-73
2021/12/13 01:56:43;;;;;;;0.10;0.10;;;3.50;99.90;226.50;231333.00;;;;5010520;28;20280;-73
2021/12/13 01:59:40;;;;;;;0.10;0.10;;;3.60;99.90;226.50;231333.00;;;;5011817;28;20195;-74
2021/12/13 02:02:22;;;;;;;0.10;0.10;;;3.60;99.90;226.50;231333.00;;;;5010669;28;20200;-74
2021/12/13 02:05:06;;;;;;;0.10;0.10;;;3.60;99.90;226.50;231333.00;;;;5010341;28;20207;-73
2021/12/13 02:07:44;;;;;;;0.10;0.10;;;3.60;99.90;226.50;231333.00;;;;5011004;28;20191;-73
2021/12/13 02:10:20;;;;;;;0.10;0.10;;;3.60;99.90;226.50;231333.00;;;;5011678;28;20187;-73
2021/12/13 02:12:55;;;;;;;0.10;0.10;;;3.60;99.90;226.50;231333.00;;;;5010509;28;20215;-72
2021/12/13 02:18:17;;;;;;;0.10;0.10;;;3.60;99.90;226.50;231333.00;;;;5011345;28;20613;-73
2021/12/13 02:20:51;;;;;;;0.10;0.10;;;3.60;99.90;226.50;231333.00;;;;5008851;28;20609;-73
2021/12/13 02:23:21;;;;;;;0.10;0.10;;;3.60;99.90;226.50;231333.00;;;;5011852;28;20223;-73
2021/12/13 02:25:55;;;;;;;0.10;0.10;;;3.60;99.90;226.50;231333.00;;;;5011567;28;20192;-73
2021/12/13 02:28:27;;;;;;;0.10;0.10;;;3.60;99.90;226.50;231333.00;;;;5010938;28;20692;-73
2021/12/13 02:31:01;;;;;;;0.10;0.10;;;3.60;99.90;226.50;231333.00;;;;5011057;28;20196;-74
2021/12/13 02:33:35;;;;;;;0.10;0.10;;;3.60;99.90;226.50;231333.00;;;;5010736;28;20224;-73
2021/12/13 02:36:08;;;;;;;0.10;0.10;;;3.60;99.90;226.50;231333.00;;;;5007175;28;20278;-73
2021/12/13 02:38:43;;;;;;;0.10;0.10;;;3.60;99.90;226.50;231333.00;;;;5013510;28;20687;-73
2021/12/13 02:41:12;;;;;;;0.10;0.10;;;3.70;99.90;226.50;231333.00;;;;5015485;28;20204;-74
2021/12/13 02:43:45;;;;;;;0.10;0.10;;;3.60;99.90;226.50;231333.00;;;;5009812;28;20270;-73
2021/12/13 02:46:15;;;;;;;0.10;0.10;;;3.70;99.90;226.50;231333.00;;;;5009992;28;20200;-74
2021/12/13 02:48:48;;;;;;;0.10;0.10;;;3.70;99.90;226.50;231333.00;;;;5008453;28;20210;-73
2021/12/13 02:51:25;;;;;;;0.10;0.10;;;3.70;99.90;226.50;231333.00;;;;5009420;28;20192;-73
2021/12/13 02:54:00;;;;;;;0.10;0.10;;;3.70;99.90;226.50;231333.00;;;;5010727;28;20228;-72
2021/12/13 02:56:34;;;;;;;0.10;0.10;;;3.70;99.90;226.50;231333.00;;;;5010929;28;20274;-73
2021/12/13 02:59:06;;;;;;;0.10;0.10;;;3.60;99.90;226.50;231333.00;;;;5010842;28;20672;-73
2021/12/13 03:01:42;;;;;;;0.20;0.20;;;3.70;99.90;226.50;231333.00;;;;5010452;28;20250;-73
2021/12/13 03:04:16;;;;;;;0.10;0.10;;;3.70;99.90;226.50;231333.00;;;;5010424;28;20234;-73
2021/12/13 03:06:51;;;;;;;0.10;0.10;;;3.70;99.90;226.50;231333.00;;;;5009304;28;20200;-73
2021/12/13 03:09:26;;;;;;;0.10;0.10;;;3.70;99.90;226.50;231333.00;;;;5010242;28;20195;-73
2021/12/13 03:11:57;;;;;;;0.10;0.10;;;3.70;99.90;226.50;231333.00;;;;5009658;28;20207;-74
2021/12/13 03:14:28;;;;;;;0.10;0.10;;;3.80;99.90;226.50;231333.00;;;;5008368;28;20719;-74
2021/12/13 03:17:04;;;;;;;0.10;0.10;;;3.80;99.90;226.50;231333.00;;;;5009760;28;20195;-74
2021/12/13 03:19:54;;;;;;;0.10;0.10;;;3.80;99.90;226.50;231333.00;;;;5009343;28;20231;-74
2021/12/13 03:22:49;;;;;;;0.10;0.10;;;3.70;99.90;226.50;231333.00;;;;5009379;28;20704;-74
2021/12/13 03:25:28;;;;;;;0.10;0.10;;;3.80;99.90;226.50;231333.00;;;;5010279;28;20196;-74
2021/12/13 03:28:13;;;;;;;0.10;0.10;;;3.70;99.90;226.50;231333.00;;;;5009388;28;20191;-73
2021/12/13 03:30:54;;;;;;;0.10;0.10;;;3.70;99.90;226.50;231333.00;;;;5008053;28;20253;-73
2021/12/13 03:33:32;;;;;;;0.10;0.10;;;3.70;99.90;226.50;231333.00;;;;5008612;28;20313;-74
2021/12/13 03:36:07;;;;;;;0.10;0.10;;;3.70;99.90;226.50;231333.00;;;;5004994;28;20203;-74
2021/12/13 03:38:42;;;;;;;0.10;0.10;;;3.80;99.90;226.50;231333.00;;;;5009200;28;20672;-74
2021/12/13 03:41:16;;;;;;;0.10;0.10;;;3.70;99.90;226.50;231333.00;;;;5010345;28;20314;-73
2021/12/13 03:43:48;;;;;;;0.10;0.10;;;3.70;99.90;226.50;231333.00;;;;5009083;28;20278;-73
2021/12/13 03:46:20;;;;;;;0.10;0.10;;;3.70;99.90;226.50;231333.00;;;;5008951;28;20608;-73
2021/12/13 03:48:52;;;;;;;0.10;0.10;;;3.70;99.90;226.50;231333.00;;;;5009207;28;20286;-73
2021/12/13 03:51:27;;;;;;;0.10;0.10;;;3.70;99.90;226.50;231333.00;;;;5008679;28;20238;-73
2021/12/13 03:53:58;;;;;;;0.10;0.10;;;3.70;99.90;226.50;231333.00;;;;5008777;28;20230;-73
2021/12/13 03:56:32;;;;;;;0.10;0.10;;;3.70;99.90;226.50;231333.00;;;;5009896;28;20681;-74
2021/12/13 03:59:05;;;;;;;0.10;0.10;;;3.70;99.90;226.50;231333.00;;;;5009000;28;20195;-74
2021/12/13 04:01:40;;;;;;;0.10;0.10;;;3.70;99.90;226.50;231333.00;;;;5010367;28;20200;-73
2021/12/13 04:04:16;;;;;;;0.10;0.10;;;3.70;99.90;226.50;231333.00;;;;5008455;28;20231;-74
2021/12/13 04:06:51;;;;;;;0.10;0.10;;;3.70;99.90;226.50;231333.00;;;;5008097;28;20191;-74
2021/12/13 04:09:22;;;;;;;0.10;0.10;;;3.70;99.90;226.50;231333.00;;;;5008150;28;20572;-74
2021/12/13 04:11:57;;;;;;;0.10;0.10;;;3.70;99.90;226.50;231333.00;;;;5011874;28;20267;-73
2021/12/13 04:14:32;;;;;;;0.10;0.10;;;3.70;99.90;226.50;231333.00;;;;5014295;28;20703;-74
2021/12/13 04:17:22;;;;;;;0.10;0.10;;;3.70;99.90;226.50;231333.00;;;;5009514;28;20195;-74
2021/12/13 04:19:56;;;;;;;0.10;0.10;;;3.70;99.90;226.50;231333.00;;;;5015421;28;20204;-74
2021/12/13 04:22:29;;;;;;;0.10;0.10;;;3.70;99.90;226.50;231333.00;;;;5011831;28;20258;-74
2021/12/13 04:25:02;;;;;;;0.10;0.10;;;3.80;99.90;226.50;231333.00;;;;5009930;28;20192;-73
2021/12/13 04:27:40;;;;;;;0.10;0.10;;;3.80;99.90;226.50;231333.00;;;;5006913;28;20542;-74
2021/12/13 04:30:20;;;;;;;0.10;0.10;;;3.70;99.90;226.50;231333.00;;;;5007663;28;20606;-75
2021/12/13 04:32:52;;;;;;;0.10;0.10;;;3.70;99.90;226.50;231333.00;;;;5008861;28;20235;-71
2021/12/13 04:35:21;;;;;;;0.10;0.10;;;3.70;99.90;226.50;231333.00;;;;5006986;28;20519;-73
2021/12/13 04:37:54;;;;;;;0.10;0.10;;;3.70;99.90;226.50;231333.00;;;;5010414;28;20538;-72
2021/12/13 04:40:28;;;;;;;0.10;0.10;;;3.70;99.90;226.50;231333.00;;;;5010814;28;20200;-72
2021/12/13 04:43:05;;;;;;;0.00;0.00;;;3.80;99.90;226.50;231333.00;;;;5010166;28;20277;-74
2021/12/13 04:45:35;;;;;;;0.10;0.10;;;3.70;99.90;226.50;231333.00;;;;5008534;28;20195;-73
2021/12/13 04:48:10;;;;;;;0.10;0.10;;;3.70;99.90;226.50;231333.00;;;;5010535;28;20557;-73
2021/12/13 04:50:47;;;;;;;0.10;0.10;;;3.70;99.90;226.50;231333.00;;;;5009558;28;20242;-73
2021/12/13 04:53:22;;;;;;;0.10;0.10;;;3.70;99.90;226.50;231333.00;;;;5006578;28;20226;-73
2021/12/13 04:55:54;;;;;;;0.10;0.10;;;3.70;99.90;226.50;231333.00;;;;5009661;28;20611;-73
2021/12/13 04:58:24;;;;;;;0.10;0.10;;;3.70;99.90;226.50;231333.00;;;;5010064;28;20200;-73
2021/12/13 05:00:58;;;;;;;0.10;0.10;;;3.70;99.90;226.50;231333.00;;;;5008699;28;20740;-73
2021/12/13 05:03:37;;;;;;;0.10;0.10;;;3.70;99.90;226.50;231333.00;;;;5005295;28;20575;-74
2021/12/13 05:06:09;;;;;;;0.10;0.10;;;3.70;99.90;226.50;231333.00;;;;5007521;28;20597;-74
2021/12/13 05:08:39;;;;;;;0.10;0.10;;;3.70;99.90;226.50;231333.00;;;;5006397;28;20258;-76
2021/12/13 05:11:10;;;;;;;0.10;0.10;;;3.70;99.90;226.50;231333.00;;;;5007154;28;20238;-74
2021/12/13 05:13:47;;;;;;;0.10;0.10;;;3.70;99.90;226.50;231333.00;;;;5007652;28;20231;-73
2021/12/13 05:16:19;;;;;;;0.10;0.10;;;3.70;99.90;226.50;231333.00;;;;5008099;28;20250;-76
2021/12/13 05:18:54;;;;;;;0.10;0.10;;;3.70;99.90;226.50;231333.00;;;;5008884;28;20199;-76
2021/12/13 05:21:28;;;;;;;0.10;0.10;;;3.70;99.90;226.50;231333.00;;;;5006839;28;20233;-73
2021/12/13 05:24:00;;;;;;;0.10;0.10;;;3.70;99.90;226.50;231333.00;;;;5007001;28;20223;-73
2021/12/13 05:26:34;;;;;;;0.10;0.10;;;3.80;99.90;226.50;231333.00;;;;5007728;28;20242;-73
2021/12/13 05:29:06;;;;;;;0.10;0.10;;;3.80;99.90;226.50;231333.00;;;;5006954;28;20215;-73
2021/12/13 05:31:35;;;;;;;0.10;0.10;;;3.80;99.90;226.50;231333.00;;;;5008638;28;20584;-73
2021/12/13 05:34:07;;;;;;;0.10;0.10;;;3.90;99.90;226.50;231333.00;;;;5009143;28;20242;-73
2021/12/13 05:36:37;;;;;;;0.10;0.10;;;3.80;99.90;226.50;231333.00;;;;5007592;28;20735;-73
2021/12/13 05:39:11;;;;;;;0.10;0.10;;;3.80;99.90;226.50;231333.00;;;;5008931;28;20200;-73
2021/12/13 05:41:49;;;;;;;0.10;0.10;;;3.90;99.90;226.50;231333.00;;;;5007585;28;20187;-73
2021/12/13 05:44:27;;;;;;;0.10;0.10;;;3.80;99.90;226.50;231333.00;;;;5005341;28;20224;-72
2021/12/13 05:46:56;;;;;;;0.10;0.10;;;3.90;99.90;226.50;231333.00;;;;5008389;28;20200;-72
2021/12/13 05:49:32;;;;;;;0.10;0.10;;;3.80;99.90;226.50;231333.00;;;;5007979;28;20291;-73
2021/12/13 05:52:09;;;;;;;0.10;0.10;;;3.90;99.90;226.50;231333.00;;;;5006799;28;20196;-73
2021/12/13 05:54:44;;;;;;;0.10;0.10;;;3.90;99.90;226.50;231333.00;;;;5003464;28;20235;-73
2021/12/13 05:57:19;;;;;;;0.10;0.10;;;3.90;99.90;226.50;231333.00;;;;5006267;28;20195;-73
2021/12/13 06:00:05;;;;;;;0.10;0.10;;;3.90;99.90;226.50;231333.00;;;;5008613;28;20199;-73
2021/12/13 06:03:04;;;;;;;0.10;0.10;;;3.90;99.90;226.50;231333.00;;;;5007365;28;20700;-75
2021/12/13 06:05:36;;;;;;;0.10;0.10;;;3.90;99.90;226.50;231333.00;;;;5005956;28;20196;-76
2021/12/13 06:08:09;;;;;;;0.10;0.10;;;3.90;99.90;226.50;231333.00;;;;5004669;28;20238;-75
2021/12/13 06:10:51;;;;;;;0.05;0.05;;;3.90;99.90;226.50;231333.00;;;;5010472;28;20199;-73
2021/12/13 06:13:53;;;;;;;0.10;0.10;;;3.90;99.90;226.50;231333.00;;;;5011023;28;20617;-73
2021/12/13 06:16:40;;;;;;;0.10;0.10;;;3.90;99.90;226.50;231333.00;;;;5012853;28;20723;-73
2021/12/13 06:19:16;;;;;;;0.10;0.10;;;3.90;99.90;226.50;231333.00;;;;5012270;28;20570;-73
2021/12/13 06:22:02;;;;;;;0.10;0.10;;;3.90;99.90;226.50;231333.00;;;;5013361;28;20980;-73
2021/12/13 06:24:42;;;;;;;0.10;0.10;;;3.90;99.90;226.50;231333.00;;;;5012661;28;20635;-73
2021/12/13 06:27:19;;;;;;;0.10;0.10;;;4.00;99.90;226.50;231333.00;;;;5012644;28;20676;-73
2021/12/13 06:29:59;;;;;;;0.10;0.10;;;4.00;99.90;226.50;231333.00;;;;5009595;28;20195;-73
2021/12/13 06:32:37;;;;;;;0.10;0.10;;;4.00;99.90;226.50;231333.00;;;;5012657;28;20207;-73
2021/12/13 06:35:37;;;;;;;0.10;0.10;;;4.00;99.90;226.50;231333.00;;;;5011806;28;20297;-73
2021/12/13 06:38:37;;;;;;;0.10;0.10;;;4.00;99.90;226.50;231333.00;;;;5012414;28;20221;-73
2021/12/13 06:41:16;;;;;;;0.10;0.10;;;4.10;99.90;226.50;231333.00;;;;5010303;28;20253;-73
2021/12/13 06:43:50;;;;;;;0.10;0.10;;;4.00;99.90;226.50;231333.00;;;;5012303;28;20211;-73
2021/12/13 06:46:47;;;;;;;0.10;0.10;;;4.00;99.90;226.50;231333.00;;;;5011734;28;20307;-72
2021/12/13 06:49:27;;;;;;;0.10;0.10;;;4.00;99.90;226.50;231333.00;;;;5008163;28;20205;-73
2021/12/13 06:52:01;;;;;;;0.10;0.10;;;4.10;99.90;226.50;231333.00;;;;5011132;28;20238;-72
2021/12/13 06:54:38;;;;;;;0.10;0.10;;;4.10;99.90;226.50;231333.00;;;;5010842;28;20298;-73
2021/12/13 06:57:11;;;;;;;0.10;0.10;;;4.10;99.90;226.50;231333.00;;;;5010337;28;20214;-73
2021/12/13 06:59:49;;;;;;;0.10;0.10;;;4.10;99.90;226.50;231333.00;;;;5010596;28;20610;-73
2021/12/13 07:02:22;;;;;;;0.10;0.10;;;4.10;99.90;226.50;231333.00;;;;5010958;28;20262;-75
2021/12/13 07:05:03;;;;;;;0.10;0.10;;;4.10;99.90;226.50;231333.00;;;;5011908;28;20676;-73
2021/12/13 07:07:37;;;;;;;0.10;0.10;;;4.10;99.90;226.50;231333.00;;;;5009127;28;20693;-73
2021/12/13 07:10:15;;;;;;;0.10;0.10;;;4.20;99.90;226.50;231333.00;;;;5011538;28;20190;-73
2021/12/13 07:12:52;;;;;;;0.10;0.10;;;4.10;99.90;226.50;231333.00;;;;5012597;28;20204;-72
2021/12/13 07:15:39;;;;;;;0.10;0.10;;;4.20;99.90;226.50;231333.00;;;;5011324;28;20227;-73
2021/12/13 07:18:15;;;;;;;0.10;0.10;;;4.20;99.90;226.50;231333.00;;;;5010751;28;20207;-73
2021/12/13 07:20:56;;;;;;;0.10;0.10;;;4.20;99.90;226.50;231333.00;;;;5011555;28;20208;-73
2021/12/13 07:23:24;;;;;;;0.10;0.10;;;4.20;99.90;226.50;231333.00;;;;5012136;28;20219;-72
2021/12/13 07:25:56;;;;;;;0.10;0.10;;;4.20;99.90;226.50;231333.00;;;;5010138;28;20196;-72
2021/12/13 07:28:31;;;;;;;0.10;0.10;;;4.20;99.90;226.50;231333.00;;;;5011550;28;20204;-73
2021/12/13 07:31:00;;;;;;;0.10;0.10;;;4.20;99.90;226.50;231333.00;;;;5010748;28;20669;-73
2021/12/13 07:33:38;;;;;;;0.10;0.10;;;4.20;99.90;226.50;231333.00;;;;5011347;28;20219;-72
2021/12/13 07:36:20;;;;;;;0.10;0.10;;;4.20;99.90;226.50;231333.00;;;;5012617;28;20223;-73
2021/12/13 07:38:52;;;;;;;0.10;0.10;;;4.20;99.90;226.50;231333.00;;;;5013310;28;20258;-73
2021/12/13 07:41:21;;;;;;;0.10;0.10;;;4.30;99.90;226.50;231333.00;;;;5013319;28;20211;-72
2021/12/13 07:43:49;;;;;;;0.10;0.10;;;4.40;99.90;226.50;231333.00;;;;5013056;28;20273;-72
2021/12/13 07:46:30;;;;;;;0.10;0.10;;;4.30;99.90;226.50;231333.00;;;;5007315;28;20214;-72
2021/12/13 07:49:03;;;;;;;0.10;0.10;;;4.30;99.90;226.50;231333.00;;;;5013197;28;20206;-72
2021/12/13 07:51:41;;;;;;;0.10;0.10;;;4.30;99.90;226.50;231333.00;;;;5011033;28;20258;-73
2021/12/13 07:54:14;;;;;;;0.10;0.10;;;4.40;99.90;226.50;231333.00;;;;5011212;28;20223;-72
2021/12/13 07:56:49;;;;;;;0.10;0.10;;;4.40;99.90;226.50;231333.00;;;;5011776;28;20195;-73
2021/12/13 07:59:26;;;;;;;0.10;0.10;;;4.40;99.90;226.50;231333.00;;;;5010662;28;20707;-72
2021/12/13 08:01:59;;;;;;;0.10;0.10;;;4.40;99.90;226.50;231333.00;;;;5011382;28;20200;-72
2021/12/13 08:04:33;;;;;;;0.10;0.10;;;4.40;99.90;226.50;231333.00;;;;5011312;28;20231;-73
2021/12/13 08:07:13;;;;;;;0.10;0.10;;;4.40;99.90;226.50;231333.00;;;;5011379;28;20210;-72
2021/12/13 08:09:46;;;;;;;0.10;0.10;;;4.40;99.90;226.50;231333.00;;;;5011533;28;20274;-73
2021/12/13 08:12:20;;;;;;;0.10;0.10;;;4.50;99.90;226.50;231333.00;;;;5009125;28;20669;-72
2021/12/13 08:14:53;;;;;;;0.10;0.10;;;4.50;99.90;226.50;231333.00;;;;5011499;28;20211;-72
2021/12/13 08:17:26;;;;;;;0.10;0.10;;;4.50;99.90;226.50;231333.00;;;;5012154;28;20222;-72
2021/12/13 08:20:00;;;;;;;0.10;0.10;;;4.50;99.90;226.50;231333.00;;;;5011921;28;20212;-73
2021/12/13 08:22:34;;;;;;;0.10;0.10;;;4.50;99.90;226.50;231333.00;;;;5010179;28;20198;-73
2021/12/13 08:25:10;;;;;;;0.10;0.10;;;4.50;99.90;226.50;231333.00;;;;5010445;28;20650;-72
2021/12/13 08:27:43;;;;;;;0.10;0.10;;;4.50;99.90;226.50;231333.00;;;;5011053;28;20199;-72
2021/12/13 08:30:17;;;;;;;0.10;0.10;;;4.50;99.90;226.50;231333.00;;;;5010370;28;20665;-72
2021/12/13 08:33:06;;;;;;;0.10;0.10;;;4.50;99.90;226.50;231333.00;;;;5011435;28;20615;-72
2021/12/13 08:35:51;;;;;;;0.10;0.10;;;4.50;99.90;226.50;231333.00;;;;5009252;28;20217;-72
2021/12/13 08:38:41;;;;;;;0.10;0.10;;;4.50;99.90;226.50;231333.00;;;;5011125;28;20203;-72
2021/12/13 08:41:25;;;;;;;0.10;0.10;;;4.50;99.90;226.50;231333.00;;;;5012538;28;20221;-72
2021/12/13 08:43:57;;;;;;;0.10;0.10;;;4.50;99.90;226.50;231333.00;;;;5009488;28;20212;-73
2021/12/13 08:46:43;;;;;;;0.10;0.10;;;4.50;99.90;226.50;231333.00;;;;5009975;28;20209;-72
2021/12/13 08:49:23;;;;;;;0.10;0.10;;;4.50;99.90;226.50;231333.00;;;;5025356;28;20199;-73
2021/12/13 08:52:02;;;;;;;0.10;0.10;;;4.50;99.90;226.50;231333.00;;;;5013705;28;20207;-72
2021/12/13 08:54:51;;;;;;;0.10;0.10;;;4.60;99.90;226.50;231333.00;;;;5012133;28;20270;-72
2021/12/13 08:57:57;;;;;;;0.10;0.10;;;4.50;99.90;226.50;231333.00;;;;5012606;28;20211;-72
2021/12/13 09:00:45;;;;;;;0.10;0.10;;;4.60;99.90;226.50;231333.00;;;;5011059;28;20203;-72
2021/12/13 09:03:28;;;;;;;0.10;0.10;;;4.60;99.90;226.50;231333.00;;;;5011148;28;20223;-72
2021/12/13 09:06:24;;;;;;;0.10;0.10;;;4.60;99.90;226.50;231333.00;;;;5009318;28;20246;-73
2021/12/13 09:08:57;;;;;;;0.10;0.10;;;4.60;99.90;226.50;231333.00;;;;5011296;28;21474;-73
2021/12/13 09:11:33;;;;;;;0.10;0.10;;;4.60;99.90;226.50;231333.00;;;;5011132;28;20208;-73
2021/12/13 09:14:15;;;;;;;0.10;0.10;;;4.70;99.90;226.50;231333.00;;;;5009337;28;20688;-73
2021/12/13 09:17:07;;;;;;;0.10;0.10;;;4.80;99.90;226.50;231333.00;;;;5007901;28;20254;-73
2021/12/13 09:19:49;;;;;;;0.10;0.10;;;4.80;99.90;226.50;231333.00;;;;5007355;28;20207;-73
2021/12/13 09:22:28;;;;;;;0.10;0.10;;;4.80;99.90;226.50;231333.00;;;;5010830;28;20206;-73
2021/12/13 09:25:02;;;;;;;0.10;0.10;;;4.80;99.90;226.50;231333.00;;;;5008140;28;20214;-72
2021/12/13 09:27:43;;;;;;;0.10;0.10;;;4.80;99.90;226.50;231333.00;;;;5008497;28;20191;-73
2021/12/13 09:30:42;;;;;;;0.10;0.10;;;4.80;99.90;226.50;231333.00;;;;5009335;28;20199;-73
2021/12/13 09:33:21;;;;;;;0.10;0.10;;;4.90;99.90;226.50;231333.00;;;;4959701;28;21510;-73
2021/12/13 09:35:54;;;;;;;0.10;0.10;;;4.90;99.90;226.50;231333.00;;;;5007888;28;20223;-73
2021/12/13 09:38:46;;;;;;;0.10;0.10;;;4.90;99.90;226.50;231333.00;;;;5008755;28;20183;-72
2021/12/13 09:41:27;;;;;;;0.10;0.10;;;5.00;99.90;226.50;231333.00;;;;5008300;28;20309;-73
2021/12/13 09:44:16;;;;;;;0.10;0.10;;;4.90;99.90;226.50;231333.00;;;;5009209;28;20270;-73
2021/12/13 09:46:51;;;;;;;0.10;0.10;;;5.00;99.90;226.50;231333.00;;;;5015526;28;20195;-73
2021/12/13 09:49:26;;;;;;;0.10;0.10;;;5.00;99.90;226.50;231333.00;;;;5015446;28;20210;-73
2021/12/13 09:52:01;;;;;;;0.10;0.10;;;5.00;99.90;226.50;231333.00;;;;5013476;28;20243;-73
2021/12/13 09:54:35;;;;;;;0.10;0.10;;;5.10;99.90;226.50;231333.00;;;;5013713;28;20220;-73
2021/12/13 09:57:14;;;;;;;0.10;0.10;;;5.00;99.90;226.50;231333.00;;;;5013321;28;20214;-73
2021/12/13 10:00:11;;;;;;;0.10;0.10;;;5.00;99.90;226.50;231333.00;;;;5011816;28;20192;-73
2021/12/13 10:02:45;;;;;;;0.10;0.10;;;5.10;99.90;226.50;231333.00;;;;5011946;28;20591;-73
2021/12/13 10:05:20;;;;;;;0.10;0.10;;;5.10;99.90;226.50;231333.00;;;;5012042;28;21329;-73
2021/12/13 10:07:54;;;;;;;0.10;0.10;;;5.10;99.90;226.50;231333.00;;;;5012396;28;20206;-73
2021/12/13 10:10:30;;;;;;;0.10;0.10;;;5.10;99.90;226.50;231333.00;;;;5012897;28;20195;-72
2021/12/13 10:13:02;;;;;;;0.10;0.10;;;5.10;99.90;226.50;231333.00;;;;5011480;28;20610;-73
2021/12/13 10:15:36;;;;;;;0.10;0.10;;;5.10;99.90;226.50;231333.00;;;;5011008;28;20196;-73
2021/12/13 10:18:10;;;;;;;0.10;0.10;;;5.10;99.90;226.50;231333.00;;;;5010021;28;20693;-73
2021/12/13 10:20:44;;;;;;;0.10;0.10;;;5.10;99.90;226.50;231333.00;;;;5009913;28;20203;-73
2021/12/13 10:23:18;;;;;;;0.10;0.10;;;5.20;99.90;226.50;231333.00;;;;5009870;28;20249;-73
2021/12/13 10:25:52;;;;;;;0.10;0.10;;;5.20;99.90;226.50;231333.00;;;;5010963;28;20265;-73
2021/12/13 10:28:24;;;;;;;0.00;0.00;;;5.20;99.90;226.50;231333.00;;;;5011001;28;21518;-72
2021/12/13 10:30:58;;;;;;;0.00;0.00;;;5.20;99.90;226.50;231333.00;;;;5010843;28;20299;-73
2021/12/13 10:33:28;;;;;;;0.10;0.10;;;5.20;99.90;226.50;231333.00;;;;5011745;28;20703;-74
2021/12/13 10:36:00;;;;;;;0.10;0.10;;;5.30;99.90;226.50;231333.00;;;;5012051;28;20215;-73
2021/12/13 10:38:33;;;;;;;0.10;0.10;;;5.40;99.90;226.50;231333.00;;;;5012883;28;20266;-73
2021/12/13 10:41:08;;;;;;;0.10;0.10;;;5.40;99.90;226.50;231333.00;;;;5010058;28;20192;-73
2021/12/13 10:43:42;;;;;;;0.10;0.10;;;5.40;99.90;226.50;231333.00;;;;5012129;28;20616;-73
2021/12/13 10:46:18;;;;;;;0.10;0.10;;;5.40;99.90;226.50;231333.00;;;;5009418;28;20204;-73
2021/12/13 10:48:54;;;;;;;0.00;0.00;;;5.40;99.90;226.50;231333.00;;;;5011585;28;20222;-72
2021/12/13 10:51:27;;;;;;;0.00;0.00;;;5.40;99.90;226.50;231333.00;;;;5011779;28;20204;-73
2021/12/13 10:54:00;;;;;;;0.05;0.05;;;5.50;99.90;226.50;231333.00;;;;5012724;28;20207;-73
2021/12/13 10:56:35;;;;;;;0.10;0.10;;;5.50;99.90;226.50;231333.00;;;;5009469;28;20208;-73
2021/12/13 10:59:11;;;;;;;0.10;0.10;;;5.50;99.90;226.50;231333.00;;;;5009814;28;20191;-73
2021/12/13 11:01:44;;;;;;;0.10;0.10;;;5.50;99.90;226.50;231333.00;;;;5012864;28;20215;-73
2021/12/13 11:04:19;;;;;;;0.10;0.10;;;5.50;99.90;226.50;231333.00;;;;5009906;28;20224;-73
2021/12/13 11:06:48;;;;;;;0.10;0.10;;;5.50;99.90;226.50;231333.00;;;;5012075;28;20587;-72
2021/12/13 11:09:23;;;;;;;0.10;0.10;;;5.50;99.90;226.50;231333.00;;;;5012545;28;20250;-74
2021/12/13 11:11:56;;;;;;;0.10;0.10;;;5.60;99.90;226.50;231333.00;;;;5007793;28;20269;-73
2021/12/13 11:14:27;;;;;;;0.10;0.10;;;5.60;99.90;226.50;231333.00;;;;5006756;28;20230;-73
2021/12/13 11:17:00;;;;;;;0.10;0.10;;;5.60;99.90;226.50;231333.00;;;;5012548;28;20250;-72
2021/12/13 11:19:34;;;;;;;0.10;0.10;;;5.70;99.90;226.50;231333.00;;;;5011860;28;20199;-73
2021/12/13 11:22:08;;;;;;;0.10;0.10;;;5.70;99.90;226.50;231333.00;;;;5011183;28;20685;-73
2021/12/13 11:24:43;;;;;;;0.10;0.10;;;5.70;99.90;226.50;231333.00;;;;5010612;28;20266;-72
2021/12/13 11:27:17;;;;;;;0.10;0.10;;;5.70;99.90;226.50;231333.00;;;;5012241;28;20720;-73
2021/12/13 11:29:46;;;;;;;0.10;0.10;;;5.70;99.90;226.50;231333.00;;;;5008973;28;20320;-73
2021/12/13 11:33:03;;;;;;;0.10;0.10;;;5.70;99.90;226.50;231333.00;;;;5007761;28;20199;-72